^^
Your Local Weather - Clay, NY Station Historical Data
Daily Summary for August 16, 2017 Units:  English    Metric   Both
« Previous Day
Next Day »
Daily Weekly Monthly Yearly Custom
  High: Low: Average:
Temperature: 76.2 °F 53.9 °F 66 °F
Dew Point: 65.7 °F 50.8 °F 58.7 °F
Humidity: 95% 49% 79%
Wind Speed: 5.0mph 0.0mph 0.9mph
Wind Gust: 8.0mph - -
Wind- - West
Pressure: 30.04 in 29.87 in -
Precipitation: 0.00 in    
Historical Graphs
 
 
Tabular Data for August 16, 2017
Time Temperature Dew Point Pressure Wind Wind Speed Wind Gust Humidity Rainfall Rate (Hourly) solar
00:00 63.4 °F 61.3 °F 29.88 in Calm     93% 0.00 in 0 W/m2
00:06 63.4 °F 61.3 °F 29.88 in Calm     93% 0.00 in 0 W/m2
00:12 63.2 °F 61.1 °F 29.87 in Calm     93% 0.00 in 0 W/m2
00:18 63.0 °F 60.9 °F 29.88 in Calm     93% 0.00 in 0 W/m2
00:24 62.8 °F 60.7 °F 29.88 in Calm     93% 0.00 in 0 W/m2
00:30 62.8 °F 60.7 °F 29.88 in Calm     93% 0.00 in 0 W/m2
00:36 62.7 °F 60.6 °F 29.88 in Calm     93% 0.00 in 0 W/m2
00:42 62.8 °F 60.7 °F 29.88 in Calm     93% 0.00 in 0 W/m2
00:48 62.8 °F 60.7 °F 29.88 in Calm     93% 0.00 in 0 W/m2
00:54 62.8 °F 60.7 °F 29.88 in Calm     93% 0.00 in 0 W/m2
01:00 62.7 °F 60.6 °F 29.88 in Calm     93% 0.00 in 0 W/m2
01:06 62.5 °F 60.4 °F 29.88 in Calm     93% 0.00 in 0 W/m2
01:12 62.3 °F 60.2 °F 29.88 in Calm     93% 0.00 in 0 W/m2
01:18 62.2 °F 60.2 °F 29.88 in Calm     93% 0.00 in 0 W/m2
01:24 62.1 °F 60.1 °F 29.88 in Calm     93% 0.00 in 0 W/m2
01:30 62.0 °F 60.0 °F 29.88 in Calm     93% 0.00 in 0 W/m2
01:36 61.9 °F 59.9 °F 29.88 in Calm     93% 0.00 in 0 W/m2
01:42 61.9 °F 59.9 °F 29.88 in Calm     93% 0.00 in 0 W/m2
01:48 62.0 °F 60.0 °F 29.88 in Calm     93% 0.00 in 0 W/m2
01:54 61.9 °F 59.9 °F 29.88 in Calm     93% 0.00 in 0 W/m2
02:00 61.8 °F 59.8 °F 29.88 in Calm     93% 0.00 in 0 W/m2
02:06 61.8 °F 60.1 °F 29.88 in Calm     94% 0.00 in 0 W/m2
02:12 61.7 °F 60.0 °F 29.88 in Calm     94% 0.00 in 0 W/m2
02:18 61.7 °F 60.0 °F 29.88 in Calm     94% 0.00 in 0 W/m2
02:24 61.6 °F 59.9 °F 29.88 in Calm     94% 0.00 in 0 W/m2
02:30 61.6 °F 59.9 °F 29.88 in Calm     94% 0.00 in 0 W/m2
02:36 61.7 °F 60.0 °F 29.88 in Calm     94% 0.00 in 0 W/m2
02:42 61.7 °F 60.0 °F 29.88 in Calm     94% 0.00 in 0 W/m2
02:48 61.8 °F 60.1 °F 29.88 in Calm     94% 0.00 in 0 W/m2
02:54 61.7 °F 60.0 °F 29.88 in Calm     94% 0.00 in 0 W/m2
03:00 61.5 °F 59.8 °F 29.88 in Calm     94% 0.00 in 0 W/m2
03:06 61.7 °F 60.0 °F 29.88 in Calm     94% 0.00 in 0 W/m2
03:12 61.7 °F 60.0 °F 29.88 in Calm     94% 0.00 in 0 W/m2
03:18 61.6 °F 59.9 °F 29.88 in Calm     94% 0.00 in 0 W/m2
03:24 61.6 °F 59.9 °F 29.89 in Calm     94% 0.00 in 0 W/m2
03:26 61.6 °F 59.9 °F 29.89 in Calm     94% 0.00 in 0 W/m2
03:32 61.5 °F 59.8 °F 29.89 in Calm     94% 0.00 in 0 W/m2
03:38 61.4 °F 59.7 °F 29.89 in Calm     94% 0.00 in 0 W/m2
03:44 61.3 °F 59.6 °F 29.89 in Calm     94% 0.00 in 0 W/m2
03:50 61.3 °F 59.6 °F 29.90 in Calm     94% 0.00 in 0 W/m2
03:56 61.3 °F 59.6 °F 29.90 in Calm     94% 0.00 in 0 W/m2
04:02 61.3 °F 59.6 °F 29.90 in Calm     94% 0.00 in 0 W/m2
04:08 61.3 °F 59.6 °F 29.90 in Calm     94% 0.00 in 0 W/m2
04:14 61.3 °F 59.6 °F 29.90 in Calm     94% 0.00 in 0 W/m2
04:20 61.2 °F 59.5 °F 29.91 in Calm     94% 0.00 in 0 W/m2
04:26 61.3 °F 59.6 °F 29.91 in Calm     94% 0.00 in 0 W/m2
04:32 61.4 °F 59.7 °F 29.91 in Calm     94% 0.00 in 0 W/m2
04:38 61.6 °F 59.9 °F 29.91 in Calm     94% 0.00 in 0 W/m2
04:44 61.8 °F 60.1 °F 29.91 in Calm     94% 0.00 in 0 W/m2
04:50 62.1 °F 60.4 °F 29.92 in Calm     94% 0.00 in 0 W/m2
04:56 62.5 °F 60.7 °F 29.92 in Calm     94% 0.00 in 0 W/m2
05:02 63.0 °F 61.5 °F 29.92 in Calm     95% 0.00 in 0 W/m2
05:08 63.1 °F 61.6 °F 29.92 in Calm     95% 0.00 in 0 W/m2
05:14 63.3 °F 61.8 °F 29.92 in Calm     95% 0.00 in 0 W/m2
05:20 63.3 °F 61.5 °F 29.92 in Calm     94% 0.00 in 0 W/m2
05:26 63.2 °F 61.4 °F 29.92 in Calm     94% 0.00 in 0 W/m2
05:32 63.0 °F 61.2 °F 29.92 in Calm     94% 0.00 in 0 W/m2
05:38 62.8 °F 61.0 °F 29.92 in Calm     94% 0.00 in 0 W/m2
05:44 62.5 °F 60.7 °F 29.92 in Calm     94% 0.00 in 0 W/m2
05:50 62.4 °F 60.7 °F 29.93 in Calm     94% 0.00 in 0 W/m2
05:56 62.2 °F 60.5 °F 29.93 in Calm     94% 0.00 in 0 W/m2
06:02 62.2 °F 60.5 °F 29.93 in Calm     94% 0.00 in 0 W/m2
06:08 62.4 °F 60.7 °F 29.93 in Calm   2.0 mph 94% 0.00 in 0 W/m2
06:14 62.7 °F 61.2 °F 29.94 in Calm   1.0 mph 95% 0.00 in 0 W/m2
06:20 62.9 °F 61.1 °F 29.94 in Calm     94% 0.00 in 0 W/m2
06:26 63.1 °F 61.6 °F 29.94 in Calm     95% 0.00 in 0 W/m2
06:32 63.2 °F 61.7 °F 29.94 in Calm     95% 0.00 in 0 W/m2
06:38 63.3 °F 61.8 °F 29.94 in Calm     95% 0.00 in 5 W/m2
06:44 63.4 °F 61.9 °F 29.94 in Calm     95% 0.00 in 7 W/m2
06:50 63.6 °F 62.1 °F 29.94 in Calm     95% 0.00 in 7 W/m2
06:56 63.6 °F 62.1 °F 29.94 in Calm     95% 0.00 in 7 W/m2
07:02 63.8 °F 62.3 °F 29.95 in Calm   1.0 mph 95% 0.00 in 11 W/m2
07:08 63.8 °F 62.3 °F 29.95 in Calm   1.0 mph 95% 0.00 in 21 W/m2
07:14 63.7 °F 62.2 °F 29.96 in Calm     95% 0.00 in 25 W/m2
07:20 63.7 °F 62.2 °F 29.96 in Calm     95% 0.00 in 30 W/m2
07:26 63.8 °F 62.3 °F 29.96 in Calm     95% 0.00 in 49 W/m2
07:32 64.0 °F 62.5 °F 29.96 in Calm     95% 0.00 in 54 W/m2
07:38 64.1 °F 62.6 °F 29.96 in Calm   1.0 mph 95% 0.00 in 35 W/m2
07:44 64.1 °F 62.6 °F 29.96 in NW 1.0 mph 1.0 mph 95% 0.00 in 37 W/m2
07:50 64.2 °F 62.7 °F 29.96 in NW 1.0 mph 1.0 mph 95% 0.00 in 54 W/m2
07:56 64.2 °F 62.7 °F 29.97 in NNW 1.0 mph 3.0 mph 95% 0.00 in 67 W/m2
08:02 64.3 °F 62.8 °F 29.97 in North 1.0 mph 1.0 mph 95% 0.00 in 77 W/m2
08:08 64.5 °F 63.0 °F 29.97 in NNW 1.0 mph 2.0 mph 95% 0.00 in 120 W/m2
08:14 64.6 °F 63.1 °F 29.97 in North 1.0 mph 2.0 mph 95% 0.00 in 109 W/m2
08:20 64.7 °F 63.2 °F 29.97 in North 1.0 mph 1.0 mph 95% 0.00 in 76 W/m2
08:26 64.7 °F 63.2 °F 29.97 in North 1.0 mph 2.0 mph 95% 0.00 in 118 W/m2
08:32 64.9 °F 63.4 °F 29.97 in North 1.0 mph 1.0 mph 95% 0.00 in 223 W/m2
08:38 65.3 °F 63.8 °F 29.97 in North 1.0 mph 2.0 mph 95% 0.00 in 176 W/m2
08:44 65.2 °F 63.7 °F 29.97 in North 1.0 mph 4.0 mph 95% 0.00 in 142 W/m2
08:50 65.2 °F 63.7 °F 29.98 in NNE 1.0 mph 2.0 mph 95% 0.00 in 93 W/m2
08:56 65.2 °F 63.7 °F 29.98 in NW 1.0 mph 2.0 mph 95% 0.00 in 79 W/m2
09:02 65.3 °F 63.8 °F 29.99 in Calm   1.0 mph 95% 0.00 in 91 W/m2
09:08 65.4 °F 63.9 °F 29.99 in Calm   1.0 mph 95% 0.00 in 104 W/m2
09:14 65.5 °F 64.0 °F 29.99 in Calm   1.0 mph 95% 0.00 in 107 W/m2
09:20 65.5 °F 63.7 °F 30.00 in Calm   2.0 mph 94% 0.00 in 104 W/m2
09:26 65.6 °F 63.8 °F 30.00 in Calm   2.0 mph 94% 0.00 in 130 W/m2
09:32 65.7 °F 63.9 °F 30.00 in Calm   1.0 mph 94% 0.00 in 128 W/m2
09:38 65.6 °F 63.8 °F 30.00 in WNW 1.0 mph 1.0 mph 94% 0.00 in 135 W/m2
09:44 65.7 °F 63.9 °F 30.00 in WNW 1.0 mph 1.0 mph 94% 0.00 in 155 W/m2
09:50 65.8 °F 63.7 °F 30.00 in Calm     93% 0.00 in 123 W/m2
09:56 66.0 °F 63.9 °F 30.00 in Calm   2.0 mph 93% 0.00 in 153 W/m2
10:02 66.3 °F 63.9 °F 30.00 in NW 1.0 mph 1.0 mph 92% 0.00 in 325 W/m2
10:08 67.6 °F 65.2 °F 30.00 in NW 1.0 mph 2.0 mph 92% 0.00 in 281 W/m2
10:14 68.6 °F 64.9 °F 30.00 in Calm   1.0 mph 88% 0.00 in 338 W/m2
10:20 68.5 °F 63.8 °F 30.00 in North 1.0 mph 1.0 mph 85% 0.00 in 265 W/m2
10:26 68.7 °F 64.3 °F 30.00 in North 1.0 mph 1.0 mph 86% 0.00 in 202 W/m2
10:32 68.7 °F 64.3 °F 30.00 in Calm   2.0 mph 86% 0.00 in 316 W/m2
10:38 70.3 °F 64.9 °F 30.00 in North 1.0 mph 2.0 mph 83% 0.00 in 552 W/m2
10:44 71.1 °F 65.7 °F 30.00 in NNW 2.0 mph 4.0 mph 83% 0.00 in 399 W/m2
10:50 71.2 °F 65.1 °F 30.00 in NNW 2.0 mph 3.0 mph 81% 0.00 in 875 W/m2
10:56 72.1 °F 64.9 °F 30.00 in NNW 2.0 mph 3.0 mph 78% 0.00 in 780 W/m2
11:02 72.7 °F 64.7 °F 30.00 in NNW 1.0 mph 3.0 mph 76% 0.00 in 872 W/m2
11:08 72.6 °F 63.8 °F 30.00 in North 1.0 mph 4.0 mph 74% 0.00 in 805 W/m2
11:10 72.4 °F 63.6 °F 30.00 in North 2.0 mph 2.0 mph 74% 0.00 in 814 W/m2
11:16 73.3 °F 64.9 °F 30.00 in NNW 2.0 mph 2.0 mph 75% 0.00 in 824 W/m2
11:22 73.5 °F 63.9 °F 30.00 in NW 1.0 mph 2.0 mph 72% 0.00 in 907 W/m2
11:28 73.8 °F 65.4 °F 30.00 in North 1.0 mph 3.0 mph 75% 0.00 in 907 W/m2
11:34 74.1 °F 63.3 °F 30.00 in NNE 1.0 mph 3.0 mph 69% 0.00 in 315 W/m2
11:40 73.2 °F 63.6 °F 30.00 in North 2.0 mph 2.0 mph 72% 0.00 in 933 W/m2
11:46 73.3 °F 62.5 °F 30.00 in NNE 3.0 mph 6.0 mph 69% 0.00 in 902 W/m2
11:52 74.2 °F 62.1 °F 30.00 in NW 4.0 mph 4.0 mph 66% 0.00 in 937 W/m2
11:58 74.4 °F 62.7 °F 29.99 in NW 2.0 mph 4.0 mph 67% 0.00 in 239 W/m2
12:04 73.9 °F 64.3 °F 29.99 in WNW 1.0 mph 2.0 mph 72% 0.00 in 951 W/m2
12:10 73.9 °F 62.7 °F 29.99 in NW 1.0 mph 1.0 mph 68% 0.00 in 218 W/m2
12:16 74.6 °F 63.8 °F 29.99 in NNW 1.0 mph 1.0 mph 69% 0.00 in 374 W/m2
12:22 74.6 °F 62.1 °F 30.00 in North 2.0 mph 3.0 mph 65% 0.00 in 374 W/m2
12:28 74.6 °F 62.5 °F 30.00 in NNW 2.0 mph 3.0 mph 66% 0.00 in 958 W/m2
12:34 74.9 °F 62.8 °F 30.00 in North 2.0 mph 4.0 mph 66% 0.00 in 893 W/m2
12:40 75.8 °F 61.8 °F 30.00 in NW 2.0 mph 2.0 mph 62% 0.00 in 930 W/m2
12:46 75.8 °F 61.8 °F 30.00 in NNW 2.0 mph 2.0 mph 62% 0.00 in 932 W/m2
12:52 75.0 °F 63.7 °F 30.00 in NW 3.0 mph 4.0 mph 68% 0.00 in 867 W/m2
12:58 75.1 °F 62.1 °F 29.99 in NNE 3.0 mph 4.0 mph 64% 0.00 in 865 W/m2
13:04 75.7 °F 63.1 °F 30.00 in NNW 3.0 mph 3.0 mph 65% 0.00 in 851 W/m2
13:10 75.7 °F 60.4 °F 30.00 in NNW 3.0 mph 3.0 mph 59% 0.00 in 860 W/m2
13:16 75.6 °F 59.8 °F 30.00 in NNW 2.0 mph 3.0 mph 58% 0.00 in 854 W/m2
13:22 76.1 °F 63.9 °F 30.00 in NNW 1.0 mph 5.0 mph 66% 0.00 in 800 W/m2
13:28 76.2 °F 60.3 °F 30.00 in NNW 2.0 mph 5.0 mph 58% 0.00 in 826 W/m2
13:34 75.3 °F 60.5 °F 30.00 in NW 3.0 mph 3.0 mph 60% 0.00 in 802 W/m2
13:40 74.8 °F 59.5 °F 30.00 in NNW 4.0 mph 4.0 mph 59% 0.00 in 814 W/m2
13:46 75.4 °F 62.4 °F 30.00 in NW 3.0 mph 4.0 mph 64% 0.00 in 773 W/m2
13:52 75.0 °F 58.7 °F 30.00 in NNW 2.0 mph 3.0 mph 57% 0.00 in 793 W/m2
13:58 74.9 °F 59.1 °F 30.00 in NNW 3.0 mph 4.0 mph 58% 0.00 in 812 W/m2
14:04 75.9 °F 61.5 °F 29.99 in SW 3.0 mph 4.0 mph 61% 0.00 in 751 W/m2
14:10 75.9 °F 60.5 °F 30.00 in NW 2.0 mph 4.0 mph 59% 0.00 in 773 W/m2
14:16 75.2 °F 59.4 °F 30.00 in NNE 3.0 mph 6.0 mph 58% 0.00 in 793 W/m2
14:22 75.1 °F 59.3 °F 30.00 in North 4.0 mph 4.0 mph 58% 0.00 in 789 W/m2
14:28 74.8 °F 58.5 °F 30.00 in North 3.0 mph 4.0 mph 57% 0.00 in 717 W/m2
14:34 75.4 °F 60.5 °F 30.00 in NNW 2.0 mph 3.0 mph 60% 0.00 in 766 W/m2
14:40 75.0 °F 58.7 °F 30.00 in NW 2.0 mph 5.0 mph 57% 0.00 in 772 W/m2
14:46 74.8 °F 60.9 °F 30.00 in NW 4.0 mph 5.0 mph 62% 0.00 in 766 W/m2
14:52 74.5 °F 58.8 °F 30.00 in NNE 4.0 mph 7.0 mph 58% 0.00 in 758 W/m2
14:58 74.4 °F 57.7 °F 30.00 in NW 4.0 mph 7.0 mph 56% 0.00 in 752 W/m2
15:04 73.4 °F 56.2 °F 29.99 in West 5.0 mph 6.0 mph 55% 0.00 in 744 W/m2
15:10 74.3 °F 60.4 °F 29.99 in North 4.0 mph 4.0 mph 62% 0.00 in 721 W/m2
15:16 75.1 °F 59.3 °F 30.00 in NNW 2.0 mph 4.0 mph 58% 0.00 in 707 W/m2
15:22 75.4 °F 58.6 °F 29.99 in WNW 2.0 mph 2.0 mph 56% 0.00 in 687 W/m2
15:28 75.3 °F 57.5 °F 29.99 in NNW 2.0 mph 3.0 mph 54% 0.00 in 700 W/m2
15:34 75.3 °F 58.5 °F 30.00 in West 3.0 mph 3.0 mph 56% 0.00 in 684 W/m2
15:40 75.2 °F 57.4 °F 29.99 in NNW 2.0 mph 2.0 mph 54% 0.00 in 670 W/m2
15:46 74.8 °F 58.1 °F 30.00 in North 2.0 mph 3.0 mph 56% 0.00 in 650 W/m2
15:52 74.4 °F 56.7 °F 29.99 in NW 3.0 mph 8.0 mph 54% 0.00 in 642 W/m2
15:58 74.9 °F 55.6 °F 29.99 in NNW 3.0 mph 8.0 mph 51% 0.00 in 635 W/m2
16:04 74.5 °F 56.2 °F 29.99 in WNW 3.0 mph 7.0 mph 53% 0.00 in 615 W/m2
16:10 74.8 °F 55.5 °F 29.99 in WNW 2.0 mph 4.0 mph 51% 0.00 in 594 W/m2
16:16 74.6 °F 56.9 °F 29.99 in NNW 3.0 mph 5.0 mph 54% 0.00 in 584 W/m2
16:22 75.0 °F 54.5 °F 29.99 in NW 2.0 mph 5.0 mph 49% 0.00 in 564 W/m2
16:28 74.2 °F 54.9 °F 30.00 in North 2.0 mph 5.0 mph 51% 0.00 in 554 W/m2
16:34 73.9 °F 56.7 °F 30.00 in WNW 3.0 mph 3.0 mph 55% 0.00 in 554 W/m2
16:40 74.1 °F 55.9 °F 30.00 in North 3.0 mph 3.0 mph 53% 0.00 in 548 W/m2
16:46 74.3 °F 55.5 °F 30.00 in NNW 2.0 mph 3.0 mph 52% 0.00 in 533 W/m2
16:52 74.1 °F 54.8 °F 30.00 in NE 3.0 mph 3.0 mph 51% 0.00 in 506 W/m2
16:58 73.4 °F 53.6 °F 29.99 in WNW 3.0 mph 3.0 mph 50% 0.00 in 473 W/m2
17:04 72.6 °F 55.0 °F 29.99 in NNE 3.0 mph 5.0 mph 54% 0.00 in 462 W/m2
17:10 72.3 °F 54.2 °F 30.00 in NNW 4.0 mph 4.0 mph 53% 0.00 in 450 W/m2
17:16 72.7 °F 55.1 °F 30.00 in NNW 2.0 mph 4.0 mph 54% 0.00 in 163 W/m2
17:22 72.6 °F 54.5 °F 30.00 in NNW 1.0 mph 2.0 mph 53% 0.00 in 98 W/m2
17:28 72.1 °F 53.5 °F 30.00 in NNW 1.0 mph 2.0 mph 52% 0.00 in 83 W/m2
17:34 71.8 °F 53.7 °F 30.00 in North 2.0 mph 2.0 mph 53% 0.00 in 86 W/m2
17:40 71.6 °F 52.5 °F 30.00 in NW 2.0 mph 2.0 mph 51% 0.00 in 74 W/m2
17:46 71.5 °F 54.0 °F 30.01 in North 2.0 mph 2.0 mph 54% 0.00 in 67 W/m2
17:52 71.3 °F 53.3 °F 30.01 in North 1.0 mph 1.0 mph 53% 0.00 in 63 W/m2
17:58 71.0 °F 51.4 °F 30.01 in NW 1.0 mph 1.0 mph 50% 0.00 in 63 W/m2
18:04 70.8 °F 51.2 °F 30.01 in NNW 2.0 mph 5.0 mph 50% 0.00 in 54 W/m2
18:10 70.5 °F 51.0 °F 30.01 in NNW 1.0 mph 1.0 mph 50% 0.00 in 51 W/m2
18:16 70.3 °F 50.8 °F 30.01 in NNW 1.0 mph 2.0 mph 50% 0.00 in 49 W/m2
18:22 70.0 °F 51.0 °F 30.01 in NW 1.0 mph 1.0 mph 51% 0.00 in 49 W/m2
18:24 69.9 °F 50.9 °F 30.01 in NNW 2.0 mph 3.0 mph 51% 0.00 in 49 W/m2
18:30 69.7 °F 52.3 °F 30.00 in NNW 1.0 mph 1.0 mph 54% 0.00 in 47 W/m2
18:36 69.5 °F 51.6 °F 30.00 in Calm   1.0 mph 53% 0.00 in 42 W/m2
18:42 69.2 °F 52.3 °F 30.01 in NNW 1.0 mph 1.0 mph 55% 0.00 in 42 W/m2
18:48 68.9 °F 52.1 °F 30.00 in Calm   1.0 mph 55% 0.00 in 42 W/m2
18:54 68.8 °F 52.9 °F 30.00 in North 1.0 mph 4.0 mph 57% 0.00 in 39 W/m2
19:00 68.5 °F 51.2 °F 30.00 in NNW 1.0 mph 1.0 mph 54% 0.00 in 35 W/m2
19:06 68.3 °F 51.5 °F 30.00 in NNW 1.0 mph 1.0 mph 55% 0.00 in 32 W/m2
19:12 68.0 °F 51.7 °F 30.01 in Calm   1.0 mph 56% 0.00 in 30 W/m2
19:18 67.6 °F 51.8 °F 30.01 in Calm   1.0 mph 57% 0.00 in 25 W/m2
19:24 67.3 °F 52.0 °F 30.01 in Calm     58% 0.00 in 23 W/m2
19:30 67.0 °F 54.4 °F 30.01 in Calm     64% 0.00 in 21 W/m2
19:36 66.6 °F 54.5 °F 30.01 in Calm     65% 0.00 in 18 W/m2
19:42 66.0 °F 54.3 °F 30.01 in Calm     66% 0.00 in 14 W/m2
19:48 65.0 °F 55.0 °F 30.01 in Calm     70% 0.00 in 12 W/m2
19:54 64.2 °F 55.0 °F 30.01 in Calm     72% 0.00 in 11 W/m2
20:00 63.5 °F 54.7 °F 30.01 in Calm     73% 0.00 in 7 W/m2
20:06 62.8 °F 54.8 °F 30.01 in Calm     75% 0.00 in 0 W/m2
20:12 62.2 °F 53.8 °F 30.01 in Calm     74% 0.00 in 0 W/m2
20:18 61.7 °F 53.3 °F 30.01 in Calm     74% 0.00 in 0 W/m2
20:24 61.3 °F 53.3 °F 30.01 in Calm     75% 0.00 in 0 W/m2
20:30 60.9 °F 53.3 °F 30.02 in Calm     76% 0.00 in 0 W/m2
20:36 60.3 °F 53.8 °F 30.02 in Calm     79% 0.00 in 0 W/m2
20:42 59.8 °F 53.6 °F 30.02 in Calm     80% 0.00 in 0 W/m2
20:48 59.5 °F 53.7 °F 30.02 in Calm     81% 0.00 in 0 W/m2
20:54 59.1 °F 53.6 °F 30.02 in Calm     82% 0.00 in 0 W/m2
21:00 58.7 °F 53.5 °F 30.02 in Calm     83% 0.00 in 0 W/m2
21:06 58.4 °F 53.6 °F 30.02 in Calm     84% 0.00 in 0 W/m2
21:12 58.1 °F 53.3 °F 30.02 in Calm     84% 0.00 in 0 W/m2
21:18 57.8 °F 53.3 °F 30.02 in Calm     85% 0.00 in 0 W/m2
21:24 57.6 °F 53.4 °F 30.02 in Calm     86% 0.00 in 0 W/m2
21:30 57.3 °F 53.1 °F 30.02 in Calm     86% 0.00 in 0 W/m2
21:36 57.0 °F 52.9 °F 30.02 in Calm     86% 0.00 in 0 W/m2
21:42 56.8 °F 53.0 °F 30.02 in Calm     87% 0.00 in 0 W/m2
21:48 56.6 °F 52.8 °F 30.02 in Calm     87% 0.00 in 0 W/m2
21:54 56.4 °F 52.6 °F 30.02 in Calm     87% 0.00 in 0 W/m2
22:00 56.2 °F 52.4 °F 30.02 in Calm     87% 0.00 in 0 W/m2
22:06 56.1 °F 52.3 °F 30.03 in Calm     87% 0.00 in 0 W/m2
22:12 56.0 °F 52.5 °F 30.03 in Calm     88% 0.00 in 0 W/m2
22:18 56.0 °F 52.5 °F 30.03 in Calm     88% 0.00 in 0 W/m2
22:24 56.0 °F 52.8 °F 30.03 in Calm     89% 0.00 in 0 W/m2
22:30 55.9 °F 52.7 °F 30.03 in Calm     89% 0.00 in 0 W/m2
22:36 55.7 °F 52.5 °F 30.03 in Calm     89% 0.00 in 0 W/m2
22:42 55.6 °F 52.7 °F 30.04 in Calm     90% 0.00 in 0 W/m2
22:48 55.3 °F 52.4 °F 30.04 in Calm     90% 0.00 in 0 W/m2
22:54 55.1 °F 51.9 °F 30.03 in Calm     89% 0.00 in 0 W/m2
23:00 55.0 °F 52.1 °F 30.03 in Calm     90% 0.00 in 0 W/m2
23:06 55.0 °F 52.1 °F 30.03 in Calm     90% 0.00 in 0 W/m2
23:14 54.8 °F 51.9 °F 30.04 in Calm     90% 0.00 in 0 W/m2
23:20 54.5 °F 51.6 °F 30.04 in Calm     90% 0.00 in 0 W/m2
23:26 54.2 °F 51.3 °F 30.04 in Calm     90% 0.00 in 0 W/m2
23:32 54.0 °F 51.4 °F 30.04 in Calm     91% 0.00 in 0 W/m2
23:38 54.1 °F 51.5 °F 30.04 in Calm     91% 0.00 in 0 W/m2
23:44 54.1 °F 51.5 °F 30.04 in Calm     91% 0.00 in 0 W/m2
23:50 53.9 °F 51.3 °F 30.04 in Calm     91% 0.00 in 0 W/m2
23:56 53.9 °F 51.3 °F 30.04 in Calm     91% 0.00 in 0 W/m2
Country Meadow, Clay, NY, USA
Compliments of Weather Underground - 2 mb